7CL5 weather

Playa Vista 1 Heliport
Culver City, California, United States

Public forecast

Using degrees Fahrenheit for public forecast. Weather courtesy of forecast.io.

Closest aviation weather report (METAR) to Playa Vista 1 Heliport

Closest report is Los Angeles International Airport, 2.3 nm (4.3 km) S. Retrieved 2020/02/24 00:53 UTC (55 minutes ago):

KLAX 240053Z 26010KT 10SM CLR 16/09 A3023 RMK AO2 SLP235 T01610089

Closest aviation forecast (TAF) to Playa Vista 1 Heliport

Closest forecast is Los Angeles International Airport, 2.3 nm (4.3 km) S. Retrieved 2020-02-24 00:22 UTC (1 hour ago):

TAF KLAX 232320Z 2400/2506 27012KT P6SM SKC FM240500 VRB03KT P6SM SKC FM241000 VRB03KT 5SM BR BKN008 FM241700 VRB03KT P6SM FEW010 FM242000 27010KT P6SM SKC FM250400 VRB03KT P6SM SKC